createdAt,value
2023-07-24T00:01:57.079Z,1.27
2023-07-24T00:04:24.109Z,0.90
2023-07-24T00:06:51.148Z,1.00
2023-07-24T00:09:18.139Z,0.98
2023-07-24T00:11:45.155Z,1.20
2023-07-24T00:14:12.136Z,1.20
2023-07-24T00:16:39.103Z,1.00
2023-07-24T00:19:06.100Z,0.95
2023-07-24T00:21:33.361Z,1.17
2023-07-24T00:24:00.353Z,0.90
2023-07-24T00:26:27.743Z,1.10
2023-07-24T00:28:54.967Z,0.90
2023-07-24T00:31:21.971Z,1.17
2023-07-24T00:33:49.038Z,0.90
2023-07-24T00:36:16.158Z,0.80
2023-07-24T00:38:43.154Z,1.20
2023-07-24T00:41:15.646Z,1.30
2023-07-24T00:43:42.673Z,1.13
2023-07-24T00:46:15.297Z,1.20
2023-07-24T00:48:42.456Z,1.30
2023-07-24T00:51:09.596Z,1.30
2023-07-24T00:53:36.640Z,1.05
2023-07-24T00:56:04.291Z,1.08
2023-07-24T00:58:32.454Z,1.30
2023-07-24T01:00:59.607Z,1.42
2023-07-24T01:03:35.359Z,1.20
2023-07-24T01:06:07.222Z,1.00
2023-07-24T01:08:34.283Z,1.10
2023-07-24T01:11:25.401Z,1.38
2023-07-24T01:14:01.648Z,1.52
2023-07-24T01:16:38.668Z,1.10
2023-07-24T01:19:21.930Z,1.20
2023-07-24T01:22:30.070Z,1.30
2023-07-24T01:25:20.878Z,0.95
2023-07-24T01:27:47.903Z,1.20
2023-07-24T01:30:19.952Z,1.08
2023-07-24T01:32:47.594Z,1.40
2023-07-24T01:35:14.950Z,1.30
2023-07-24T01:37:44.640Z,1.40
2023-07-24T01:40:13.921Z,1.48
2023-07-24T01:42:42.220Z,1.30
2023-07-24T01:45:10.070Z,1.50
2023-07-24T01:47:37.084Z,1.00
2023-07-24T01:50:04.509Z,1.48
2023-07-24T01:52:31.416Z,1.27
2023-07-24T01:54:58.418Z,1.25
2023-07-24T01:57:25.411Z,0.98
2023-07-24T01:59:52.502Z,1.30
2023-07-24T02:02:19.792Z,1.50
2023-07-24T02:04:47.887Z,1.10
2023-07-24T02:07:14.902Z,1.40
2023-07-24T02:09:41.895Z,1.10
2023-07-24T02:12:08.960Z,1.40
2023-07-24T02:14:38.567Z,1.35
2023-07-24T02:17:05.692Z,1.45
2023-07-24T02:19:32.682Z,1.10
2023-07-24T02:21:59.669Z,1.38
2023-07-24T02:24:26.983Z,1.67
2023-07-24T02:26:54.661Z,1.40
2023-07-24T02:29:23.619Z,1.50
2023-07-24T02:31:51.968Z,1.10
2023-07-24T02:34:19.034Z,1.08
2023-07-24T02:36:46.185Z,1.45
2023-07-24T02:39:13.180Z,1.40
2023-07-24T02:41:40.118Z,1.15
2023-07-24T02:44:07.102Z,1.45
2023-07-24T02:46:34.196Z,1.50
2023-07-24T02:49:01.287Z,1.30
2023-07-24T02:51:28.309Z,1.48
2023-07-24T02:53:56.282Z,1.30
2023-07-24T02:56:24.670Z,1.85
2023-07-24T02:58:51.665Z,1.50
2023-07-24T03:01:18.707Z,1.38
2023-07-24T03:03:45.685Z,1.50
2023-07-24T03:06:12.674Z,1.15
2023-07-24T03:08:39.663Z,1.20
2023-07-24T03:11:07.420Z,1.73
2023-07-24T03:13:34.699Z,1.30
2023-07-24T03:16:01.880Z,1.50
2023-07-24T03:18:28.913Z,1.50
2023-07-24T03:20:58.851Z,1.30
2023-07-24T03:23:26.008Z,1.33
2023-07-24T03:25:53.027Z,1.40
2023-07-24T03:28:19.967Z,1.83
2023-07-24T03:30:47.349Z,1.40
2023-07-24T03:33:14.459Z,1.30
2023-07-24T03:35:41.460Z,1.30
2023-07-24T03:38:08.433Z,1.30
2023-07-24T03:40:35.442Z,1.30
2023-07-24T03:43:02.642Z,1.60
2023-07-24T03:45:29.761Z,1.15
2023-07-24T03:47:56.890Z,1.50
2023-07-24T03:50:23.938Z,1.58
2023-07-24T03:52:50.931Z,1.23
2023-07-24T03:55:18.014Z,1.70
2023-07-24T03:57:45.068Z,2.13
2023-07-24T04:00:13.063Z,1.45
2023-07-24T04:02:40.929Z,1.58
2023-07-24T04:05:15.879Z,1.80
2023-07-24T04:07:42.962Z,1.63
2023-07-24T04:10:10.384Z,1.60
2023-07-24T04:12:37.385Z,1.10
2023-07-24T04:15:04.911Z,1.88
2023-07-24T04:17:33.513Z,1.55
2023-07-24T04:20:01.254Z,1.58
2023-07-24T04:22:28.212Z,1.58
2023-07-24T04:24:55.264Z,1.77
2023-07-24T04:27:22.329Z,1.60
2023-07-24T04:29:49.414Z,1.77
2023-07-24T04:32:16.412Z,1.48
2023-07-24T04:34:43.567Z,1.70
2023-07-24T04:37:10.688Z,1.50
2023-07-24T04:39:40.650Z,1.63
2023-07-24T04:42:07.840Z,1.40
2023-07-24T04:44:34.857Z,1.45
2023-07-24T04:47:03.372Z,1.70
2023-07-24T04:49:31.759Z,1.70
2023-07-24T04:51:58.858Z,1.80
2023-07-24T04:54:27.184Z,1.55
2023-07-24T04:56:54.209Z,1.95
2023-07-24T04:59:21.227Z,1.60
2023-07-24T05:01:48.294Z,1.98
2023-07-24T05:04:15.353Z,1.70
2023-07-24T05:06:42.346Z,1.58
2023-07-24T05:09:09.616Z,1.40
2023-07-24T05:11:36.587Z,1.60
2023-07-24T05:14:03.572Z,1.80
2023-07-24T05:16:31.169Z,1.83
2023-07-24T05:18:58.348Z,1.90
2023-07-24T05:21:25.432Z,1.70
2023-07-24T05:23:52.384Z,1.60
2023-07-24T05:26:19.601Z,1.65
2023-07-24T05:28:47.464Z,2.15
2023-07-24T05:31:14.679Z,2.15
2023-07-24T05:33:41.775Z,2.10
2023-07-24T05:36:08.763Z,2.00
2023-07-24T05:38:35.796Z,1.90
2023-07-24T05:41:04.584Z,2.03
2023-07-24T05:43:33.433Z,2.08
2023-07-24T05:46:03.069Z,1.85
2023-07-24T05:48:30.312Z,2.58
2023-07-24T05:50:57.431Z,1.90
2023-07-24T05:53:24.463Z,2.20
2023-07-24T05:56:00.868Z,3.08
2023-07-24T05:58:32.669Z,1.80
2023-07-24T06:01:00.103Z,2.13
2023-07-24T06:03:27.331Z,2.53
2023-07-24T06:05:57.681Z,2.47
2023-07-24T06:08:24.693Z,2.33
2023-07-24T06:10:52.417Z,3.08
2023-07-24T06:13:20.279Z,2.38
2023-07-24T06:15:52.790Z,3.92
2023-07-24T06:18:19.928Z,3.15
2023-07-24T06:20:47.023Z,2.72
2023-07-24T06:23:14.406Z,1.90
2023-07-24T06:25:49.893Z,2.10
2023-07-24T06:28:25.582Z,2.25
2023-07-24T06:30:55.993Z,2.03
2023-07-24T06:33:23.247Z,3.25
2023-07-24T06:35:51.813Z,3.13
2023-07-24T06:38:19.076Z,6.00
2023-07-24T06:40:46.041Z,4.00
2023-07-24T06:43:13.133Z,3.45
2023-07-24T06:45:40.200Z,3.50
2023-07-24T06:48:07.261Z,3.63
2023-07-24T06:50:34.318Z,4.97
2023-07-24T06:53:01.480Z,5.80
2023-07-24T06:55:28.577Z,5.28
2023-07-24T06:57:55.596Z,4.95
2023-07-24T07:00:22.752Z,3.08
2023-07-24T07:02:49.802Z,4.05
2023-07-24T07:05:16.903Z,3.80
2023-07-24T07:07:44.122Z,4.28
2023-07-24T07:10:11.396Z,3.38
2023-07-24T07:12:38.610Z,4.22
2023-07-24T07:15:06.305Z,3.00
2023-07-24T07:17:33.384Z,3.42
2023-07-24T07:20:00.607Z,4.00
2023-07-24T07:22:28.057Z,3.92
2023-07-24T07:24:55.090Z,2.88
2023-07-24T07:27:22.215Z,3.67
2023-07-24T07:29:49.300Z,4.60
2023-07-24T07:32:16.290Z,3.20
2023-07-24T07:34:43.370Z,4.95
2023-07-24T07:37:10.369Z,4.05
2023-07-24T07:39:37.424Z,5.07
2023-07-24T07:42:17.089Z,5.93
2023-07-24T07:44:45.085Z,5.03
2023-07-24T07:47:12.959Z,3.17
2023-07-24T07:49:43.883Z,3.83
2023-07-24T07:52:10.964Z,3.35
2023-07-24T07:54:37.928Z,6.97
2023-07-24T07:57:05.922Z,5.75
2023-07-24T07:59:33.326Z,5.45
2023-07-24T08:02:00.344Z,6.57
2023-07-24T08:04:27.316Z,6.03
2023-07-24T08:06:54.342Z,3.85
2023-07-24T08:09:22.694Z,6.90
2023-07-24T08:11:49.731Z,7.50
2023-07-24T08:14:16.757Z,3.85
2023-07-24T08:16:43.841Z,5.72
2023-07-24T08:19:10.916Z,4.15
2023-07-24T08:21:40.033Z,5.18
2023-07-24T08:24:07.456Z,6.00
2023-07-24T08:26:35.288Z,2.53
2023-07-24T08:29:02.281Z,2.70
2023-07-24T08:31:31.185Z,4.78
2023-07-24T08:33:58.406Z,3.50
2023-07-24T08:36:25.444Z,5.95
2023-07-24T08:38:52.475Z,3.20
2023-07-24T08:41:19.585Z,3.53
2023-07-24T08:43:46.837Z,5.65
2023-07-24T08:46:14.133Z,4.00
2023-07-24T08:48:43.537Z,3.95
2023-07-24T08:51:14.126Z,3.00
2023-07-24T08:53:43.916Z,4.18
2023-07-24T08:56:13.712Z,4.38
2023-07-24T08:58:40.982Z,4.82
2023-07-24T09:01:10.039Z,6.20
2023-07-24T09:03:38.308Z,3.75
2023-07-24T09:06:07.949Z,3.38
2023-07-24T09:08:43.947Z,3.05
2023-07-24T09:11:15.623Z,4.75
2023-07-24T09:13:44.310Z,2.75
2023-07-24T09:16:26.608Z,3.08
2023-07-24T09:21:33.536Z,2.83
2023-07-24T09:24:26.740Z,4.70
2023-07-24T09:29:33.073Z,2.78
2023-07-24T09:32:03.723Z,2.97
2023-07-24T09:34:30.824Z,3.67
2023-07-24T09:36:58.272Z,2.42
2023-07-24T09:39:30.595Z,3.88
2023-07-24T09:42:08.215Z,3.85
2023-07-24T09:44:36.524Z,2.97
2023-07-24T09:47:29.076Z,2.28
2023-07-24T09:49:54.389Z,2.30
2023-07-24T09:52:22.563Z,3.22
2023-07-24T09:55:34.562Z,2.45
2023-07-24T09:58:03.387Z,2.78
2023-07-24T10:00:32.612Z,2.42
2023-07-24T10:03:01.152Z,3.08
2023-07-24T10:05:30.817Z,2.63
2023-07-24T10:07:59.665Z,2.47
2023-07-24T10:10:28.309Z,2.50
2023-07-24T10:12:55.388Z,3.28
2023-07-24T10:15:22.734Z,2.67
2023-07-24T10:17:49.894Z,2.45
2023-07-24T10:20:19.115Z,4.70
2023-07-24T10:22:46.813Z,3.45
2023-07-24T10:25:13.989Z,2.20
2023-07-24T10:27:48.112Z,2.17
2023-07-24T10:30:32.204Z,2.42
2023-07-24T10:33:14.813Z,2.28
2023-07-24T10:36:11.797Z,2.25
2023-07-24T10:38:42.341Z,3.38
2023-07-24T10:41:12.098Z,2.17
2023-07-24T10:43:53.450Z,2.47
2023-07-24T10:46:22.246Z,2.15
2023-07-24T10:48:53.205Z,3.15
2023-07-24T10:51:22.293Z,2.88
2023-07-24T10:53:50.828Z,2.08
2023-07-24T10:56:18.573Z,2.20
2023-07-24T10:58:45.858Z,2.80
2023-07-24T11:01:13.038Z,1.98
2023-07-24T11:03:42.953Z,2.10
2023-07-24T11:06:17.948Z,1.88
2023-07-24T11:08:59.356Z,2.08
2023-07-24T11:11:36.537Z,2.70
2023-07-24T11:14:04.987Z,2.45
2023-07-24T11:16:34.405Z,2.20
2023-07-24T11:19:01.951Z,3.10
2023-07-24T11:21:30.652Z,2.17
2023-07-24T11:23:58.752Z,2.80
2023-07-24T11:26:28.364Z,1.90
2023-07-24T11:28:56.600Z,1.83
2023-07-24T11:31:23.773Z,2.00
2023-07-24T11:33:53.473Z,2.22
2023-07-24T11:36:21.181Z,2.15
2023-07-24T11:38:49.078Z,2.10
2023-07-24T11:41:18.895Z,1.90
2023-07-24T11:43:51.388Z,2.35
2023-07-24T11:46:27.229Z,2.05
2023-07-24T11:48:57.730Z,1.63
2023-07-24T11:51:28.739Z,2.20
2023-07-24T11:54:13.372Z,2.35
2023-07-24T11:56:40.722Z,4.88
2023-07-24T11:59:15.742Z,3.63
2023-07-24T12:01:48.764Z,3.55
2023-07-24T12:04:17.377Z,3.78
2023-07-24T12:06:44.863Z,3.20
2023-07-24T12:09:13.009Z,4.43
2023-07-24T12:11:47.430Z,2.83
2023-07-24T12:14:16.145Z,2.22
2023-07-24T12:16:43.680Z,4.55
2023-07-24T12:19:10.797Z,2.45
2023-07-24T12:21:40.062Z,2.00
2023-07-24T12:24:07.052Z,2.05
2023-07-24T12:26:34.061Z,2.30
2023-07-24T12:29:01.864Z,3.78
2023-07-24T12:31:30.207Z,1.65
2023-07-24T12:33:57.821Z,1.65
2023-07-24T12:36:25.312Z,1.73
2023-07-24T12:38:52.757Z,1.90
2023-07-24T12:41:23.051Z,2.60
2023-07-24T12:43:53.094Z,1.48
2023-07-24T12:46:20.657Z,4.13
2023-07-24T12:48:47.735Z,2.58
2023-07-24T12:51:14.917Z,2.92
2023-07-24T12:53:48.725Z,3.10
2023-07-24T12:56:28.252Z,2.88
2023-07-24T12:58:55.789Z,1.92
2023-07-24T13:01:23.161Z,2.50
2023-07-24T13:03:51.622Z,2.00
2023-07-24T13:06:18.738Z,2.17
2023-07-24T13:08:45.816Z,3.03
2023-07-24T13:11:13.000Z,1.75
2023-07-24T13:13:40.078Z,1.70
2023-07-24T13:16:07.166Z,3.35
2023-07-24T13:18:34.282Z,4.90
2023-07-24T13:21:12.103Z,2.38
2023-07-24T13:23:39.296Z,1.55
2023-07-24T13:26:06.418Z,1.70
2023-07-24T13:28:33.658Z,1.92
2023-07-24T13:31:00.867Z,1.83
2023-07-24T13:33:27.824Z,2.20
2023-07-24T13:35:54.849Z,1.85
2023-07-24T13:38:22.580Z,2.47
2023-07-24T13:40:49.752Z,1.88
2023-07-24T13:43:17.864Z,2.22
2023-07-24T13:45:45.159Z,2.45
2023-07-24T13:48:12.188Z,2.85
2023-07-24T13:50:39.196Z,2.00
2023-07-24T13:53:06.369Z,2.13
2023-07-24T13:55:33.528Z,1.70
2023-07-24T13:58:00.604Z,2.08
2023-07-24T14:00:27.820Z,2.10
2023-07-24T14:02:55.330Z,2.50
2023-07-24T14:05:22.560Z,3.10
2023-07-24T14:07:49.647Z,2.10
2023-07-24T14:10:16.920Z,6.20
2023-07-24T14:12:43.914Z,2.28
2023-07-24T14:15:11.305Z,2.20
2023-07-24T14:17:38.364Z,2.50
2023-07-24T14:20:06.534Z,2.10
2023-07-24T14:22:33.513Z,2.28
2023-07-24T14:25:02.377Z,2.33
2023-07-24T14:27:29.575Z,2.92
2023-07-24T14:29:56.563Z,2.40
2023-07-24T14:32:23.699Z,2.17
2023-07-24T14:34:54.570Z,2.05
2023-07-24T14:37:22.168Z,2.20
2023-07-24T14:39:50.701Z,2.65
2023-07-24T14:42:17.732Z,2.15
2023-07-24T14:44:44.776Z,1.90
2023-07-24T14:47:11.759Z,3.60
2023-07-24T14:49:38.835Z,2.38
2023-07-24T14:52:06.429Z,1.40
2023-07-24T14:54:35.363Z,1.70
2023-07-24T14:57:10.712Z,1.58
2023-07-24T14:59:50.416Z,1.50
2023-07-24T15:02:17.545Z,1.67
2023-07-24T15:04:44.637Z,1.40
2023-07-24T15:07:11.717Z,1.67
2023-07-24T15:09:38.729Z,1.52
2023-07-24T15:12:08.946Z,2.53
2023-07-24T15:14:35.917Z,4.50
2023-07-24T15:17:02.885Z,1.65
2023-07-24T15:19:29.918Z,2.08
2023-07-24T15:21:56.962Z,2.13
2023-07-24T15:24:23.981Z,1.95
2023-07-24T15:26:51.026Z,1.67
2023-07-24T15:29:19.658Z,1.90
2023-07-24T15:31:47.278Z,1.75
2023-07-24T15:34:14.296Z,1.80
2023-07-24T15:36:41.287Z,2.25
2023-07-24T15:39:08.326Z,2.03
2023-07-24T15:41:35.524Z,1.83
2023-07-24T15:44:02.532Z,2.28
2023-07-24T15:46:32.854Z,1.90
2023-07-24T15:49:01.415Z,2.25
2023-07-24T15:51:29.065Z,2.13
2023-07-24T15:53:56.935Z,2.78
2023-07-24T15:56:25.472Z,2.22
2023-07-24T15:58:52.677Z,2.15
2023-07-24T16:01:19.899Z,2.15
2023-07-24T16:03:46.947Z,2.83
2023-07-24T16:06:13.904Z,3.17
2023-07-24T16:08:40.966Z,2.97
2023-07-24T16:11:10.561Z,2.88
2023-07-24T16:13:43.197Z,2.92
2023-07-24T16:16:15.302Z,2.92
2023-07-24T16:18:43.055Z,2.92
2023-07-24T16:21:10.081Z,2.92
2023-07-24T16:23:39.921Z,3.38
2023-07-24T16:26:06.992Z,4.30
2023-07-24T16:28:33.946Z,3.40
2023-07-24T16:31:01.048Z,4.78
2023-07-24T16:33:28.100Z,2.70
2023-07-24T16:35:55.403Z,4.57
2023-07-24T16:38:23.507Z,3.42
2023-07-24T16:40:52.526Z,2.97
2023-07-24T16:43:19.822Z,2.78
2023-07-24T16:48:20.488Z,3.13
2023-07-24T16:50:48.382Z,2.53
2023-07-24T16:53:16.593Z,2.58
2023-07-24T16:55:43.809Z,2.70
2023-07-24T16:58:10.792Z,3.63
2023-07-24T17:00:37.955Z,2.33
2023-07-24T17:03:05.213Z,2.97
2023-07-24T17:05:32.223Z,3.15
2023-07-24T17:07:59.205Z,2.55
2023-07-24T17:10:26.308Z,2.65
2023-07-24T17:12:56.349Z,2.20
2023-07-24T17:15:24.993Z,2.80
2023-07-24T17:17:51.958Z,2.65
2023-07-24T17:20:19.104Z,3.92
2023-07-24T17:22:46.003Z,4.25
2023-07-24T17:25:13.038Z,2.83
2023-07-24T17:27:41.180Z,2.47
2023-07-24T17:30:08.912Z,3.70
2023-07-24T17:32:35.995Z,3.20
2023-07-24T17:35:04.055Z,2.13
2023-07-24T17:37:38.449Z,3.63
2023-07-24T17:40:07.624Z,2.20
2023-07-24T17:42:36.036Z,2.60
2023-07-24T17:45:04.392Z,2.42
2023-07-24T17:47:31.410Z,2.13
2023-07-24T17:50:07.090Z,2.55
2023-07-24T17:52:34.998Z,2.30
2023-07-24T17:55:03.328Z,2.55
2023-07-24T17:57:30.829Z,2.28
2023-07-24T17:59:57.852Z,3.03
2023-07-24T18:02:24.985Z,2.47
2023-07-24T18:04:51.996Z,2.38
2023-07-24T18:07:18.981Z,1.95
2023-07-24T18:09:46.077Z,2.13
2023-07-24T18:12:13.488Z,2.83
2023-07-24T18:14:40.562Z,2.15
2023-07-24T18:17:07.632Z,1.98
2023-07-24T18:19:34.885Z,2.20
2023-07-24T18:22:01.869Z,2.65
2023-07-24T18:24:28.906Z,2.40
2023-07-24T18:26:55.961Z,2.10
2023-07-24T18:29:22.956Z,1.85
2023-07-24T18:31:50.084Z,1.80
2023-07-24T18:34:18.939Z,2.60
2023-07-24T18:36:46.031Z,1.77
2023-07-24T18:39:15.138Z,2.15
2023-07-24T18:41:47.415Z,2.28
2023-07-24T18:44:15.329Z,1.95
2023-07-24T18:46:42.668Z,2.05
2023-07-24T18:49:09.764Z,2.38
2023-07-24T18:51:36.871Z,1.92
2023-07-24T18:54:04.248Z,2.28
2023-07-24T18:56:31.362Z,2.30
2023-07-24T18:58:58.408Z,1.90
2023-07-24T19:01:26.240Z,2.33
2023-07-24T19:03:53.496Z,2.10
2023-07-24T19:06:22.043Z,2.30
2023-07-24T19:08:50.226Z,2.75
2023-07-24T19:11:18.161Z,2.20
2023-07-24T19:13:45.286Z,1.65
2023-07-24T19:16:12.404Z,1.73
2023-07-24T19:18:41.187Z,1.85
2023-07-24T19:21:08.318Z,2.20
2023-07-24T19:23:35.383Z,2.65
2023-07-24T19:26:03.813Z,2.17
2023-07-24T19:28:30.947Z,2.28
2023-07-24T19:30:58.432Z,2.10
2023-07-24T19:33:27.247Z,2.35
2023-07-24T19:36:02.076Z,2.40
2023-07-24T19:38:29.732Z,2.30
2023-07-24T19:41:02.429Z,2.42
2023-07-24T19:43:29.876Z,2.10
2023-07-24T19:45:57.568Z,2.40
2023-07-24T19:48:27.943Z,2.25
2023-07-24T19:50:56.430Z,2.35
2023-07-24T19:53:25.382Z,2.00
2023-07-24T19:55:54.248Z,2.88
2023-07-24T19:58:31.986Z,1.95
2023-07-24T20:01:07.511Z,2.80
2023-07-24T20:03:34.791Z,4.60
2023-07-24T20:06:07.325Z,2.25
2023-07-24T20:08:36.321Z,2.83
2023-07-24T20:11:07.009Z,2.60
2023-07-24T20:13:35.173Z,1.90
2023-07-24T20:16:02.602Z,2.40
2023-07-24T20:18:30.253Z,2.17
2023-07-24T20:20:57.656Z,2.13
2023-07-24T20:23:25.021Z,2.08
2023-07-24T20:25:52.651Z,2.25
2023-07-24T20:28:21.730Z,1.63
2023-07-24T20:30:50.252Z,2.40
2023-07-24T20:33:17.569Z,1.83
2023-07-24T20:35:46.436Z,2.28
2023-07-24T20:38:30.773Z,1.90
2023-07-24T20:41:02.067Z,1.70
2023-07-24T20:43:30.774Z,1.52
2023-07-24T20:45:58.268Z,1.70
2023-07-24T20:48:28.422Z,1.40
2023-07-24T20:51:05.737Z,1.95
2023-07-24T20:53:33.266Z,1.30
2023-07-24T20:56:03.533Z,1.48
2023-07-24T20:58:30.617Z,1.52
2023-07-24T21:00:57.678Z,2.45
2023-07-24T21:03:24.875Z,1.40
2023-07-24T21:05:53.057Z,1.92
2023-07-24T21:08:20.190Z,1.40
2023-07-24T21:10:47.289Z,1.85
2023-07-24T21:13:14.324Z,1.98
2023-07-24T21:15:41.281Z,1.50
2023-07-24T21:18:08.332Z,1.70
2023-07-24T21:20:35.567Z,1.38
2023-07-24T21:23:02.594Z,1.67
2023-07-24T21:25:29.652Z,1.50
2023-07-24T21:27:59.460Z,1.42
2023-07-24T21:30:26.500Z,1.58
2023-07-24T21:32:53.610Z,1.42
2023-07-24T21:35:20.757Z,1.50
2023-07-24T21:37:47.913Z,1.40
2023-07-24T21:40:14.902Z,1.40
2023-07-24T21:42:42.000Z,2.33
2023-07-24T21:45:09.393Z,1.58
2023-07-24T21:47:36.446Z,1.38
2023-07-24T21:50:03.718Z,1.40
2023-07-24T21:52:30.827Z,1.33
2023-07-24T21:54:57.818Z,1.20
2023-07-24T21:57:24.857Z,1.55
2023-07-24T21:59:52.430Z,1.67
2023-07-24T22:02:19.506Z,1.20
2023-07-24T22:04:46.542Z,1.80
2023-07-24T22:07:13.574Z,1.48
2023-07-24T22:09:40.551Z,1.63
2023-07-24T22:12:08.046Z,1.38
2023-07-24T22:14:35.085Z,1.17
2023-07-24T22:17:02.188Z,1.50
2023-07-24T22:19:32.654Z,1.20
2023-07-24T22:22:00.545Z,1.27
2023-07-24T22:24:27.653Z,1.40
2023-07-24T22:26:54.645Z,1.63
2023-07-24T22:29:21.682Z,1.25
2023-07-24T22:31:48.759Z,1.25
2023-07-24T22:34:15.793Z,1.27
2023-07-24T22:36:42.952Z,1.27
2023-07-24T22:39:12.122Z,1.27
2023-07-24T22:41:39.180Z,1.17
2023-07-24T22:44:07.437Z,1.40
2023-07-24T22:46:34.639Z,1.42
2023-07-24T22:49:02.364Z,1.30
2023-07-24T22:51:29.716Z,1.20
2023-07-24T22:53:57.357Z,1.10
2023-07-24T22:56:24.465Z,1.13
2023-07-24T22:59:03.745Z,1.20
2023-07-24T23:01:34.634Z,1.70
2023-07-24T23:04:01.997Z,2.13
2023-07-24T23:06:29.114Z,1.20
2023-07-24T23:08:56.162Z,1.50
2023-07-24T23:11:23.148Z,1.42
2023-07-24T23:13:51.550Z,1.75
2023-07-24T23:16:18.524Z,1.25
2023-07-24T23:18:45.676Z,1.33
2023-07-24T23:21:12.656Z,2.70
2023-07-24T23:23:39.660Z,1.30
2023-07-24T23:26:07.725Z,1.20
2023-07-24T23:28:34.899Z,1.35
2023-07-24T23:31:07.068Z,0.95
2023-07-24T23:33:35.607Z,0.93
2023-07-24T23:36:04.627Z,1.05
2023-07-24T23:38:31.909Z,1.77
2023-07-24T23:41:00.435Z,1.30
2023-07-24T23:43:27.608Z,1.92
2023-07-24T23:45:54.666Z,1.20
2023-07-24T23:48:23.324Z,1.55
2023-07-24T23:50:51.928Z,1.40
2023-07-24T23:53:19.722Z,1.10
2023-07-24T23:55:46.709Z,1.98
2023-07-24T23:58:13.706Z,1.10
